createdAt,value
2018-11-11T00:00:02.549Z,7.9
2018-11-11T00:15:02.912Z,7.9
2018-11-11T00:30:03.297Z,7.7
2018-11-11T00:45:02.581Z,7.8
2018-11-11T01:00:02.803Z,7.7
2018-11-11T01:15:03.240Z,7.7
2018-11-11T01:30:02.538Z,7.6
2018-11-11T01:45:02.890Z,7.6
2018-11-11T02:00:03.138Z,7.4
2018-11-11T02:15:03.374Z,7.4
2018-11-11T02:30:02.841Z,7.4
2018-11-11T02:45:02.979Z,7.4
2018-11-11T03:00:03.384Z,7.4
2018-11-11T03:15:02.731Z,7.4
2018-11-11T03:30:03.052Z,7.5
2018-11-11T03:45:03.312Z,7.4
2018-11-11T04:00:02.599Z,7.4
2018-11-11T04:15:02.970Z,7.2
2018-11-11T04:30:03.323Z,7.2
2018-11-11T04:45:02.587Z,7.2
2018-11-11T05:00:02.920Z,7.3
2018-11-11T05:15:03.239Z,7.1
2018-11-11T05:30:02.580Z,7.2
2018-11-11T05:45:02.815Z,7.2
2018-11-11T06:00:03.178Z,7.2
2018-11-11T06:15:02.497Z,7.1
2018-11-11T06:30:03.059Z,7
2018-11-11T06:45:02.658Z,7
2018-11-11T07:00:03.321Z,7.1
2018-11-11T07:15:02.584Z,7.1
2018-11-11T07:30:02.979Z,7.1
2018-11-11T07:45:03.234Z,7.2
2018-11-11T08:00:02.484Z,7.2
2018-11-11T08:15:02.827Z,7.4
2018-11-11T08:30:03.127Z,7.5
2018-11-11T08:45:02.374Z,7.6
2018-11-11T09:00:03.493Z,7.7
2018-11-11T09:15:02.975Z,7.8
2018-11-11T09:30:03.323Z,7.9
2018-11-11T09:45:02.777Z,8.4
2018-11-11T10:00:03.238Z,8.6
2018-11-11T10:15:03.232Z,8.9
2018-11-11T10:30:02.605Z,8.4
2018-11-11T10:45:02.969Z,8.3
2018-11-11T11:00:03.185Z,8.6
2018-11-11T11:15:02.632Z,8.4
2018-11-11T11:30:02.952Z,9.1
2018-11-11T11:45:03.474Z,9.2
2018-11-11T12:00:02.732Z,9.6
2018-11-11T12:15:03.025Z,9.7
2018-11-11T12:30:03.496Z,10.2
2018-11-11T12:45:02.744Z,10.1
2018-11-11T13:00:03.131Z,10.6
2018-11-11T13:15:03.376Z,11.2
2018-11-11T13:30:02.733Z,11.3
2018-11-11T13:45:03.156Z,11.3
2018-11-11T14:00:03.354Z,11.4
2018-11-11T14:15:02.769Z,11.6
2018-11-11T14:30:03.021Z,11.4
2018-11-11T14:45:03.645Z,11.2
2018-11-11T15:00:02.880Z,11
2018-11-11T15:15:03.248Z,10.4
2018-11-11T15:30:02.558Z,9.9
2018-11-11T15:45:02.883Z,9.3
2018-11-11T16:00:03.138Z,8.8
2018-11-11T16:15:03.471Z,8.4
2018-11-11T16:30:02.815Z,8.1
2018-11-11T16:45:03.437Z,7.9
2018-11-11T17:00:02.834Z,7.6
2018-11-11T17:15:03.256Z,7.2
2018-11-11T17:30:02.515Z,7.1
2018-11-11T17:45:02.779Z,6.9
2018-11-11T18:00:03.158Z,6.9
2018-11-11T18:15:03.480Z,6.7
2018-11-11T18:30:02.893Z,6.4
2018-11-11T18:45:03.226Z,6.3
2018-11-11T19:00:03.409Z,6.3
2018-11-11T19:15:02.751Z,6.1
2018-11-11T19:30:03.102Z,5.7
2018-11-11T19:45:03.430Z,5.6
2018-11-11T20:00:02.760Z,5.3
2018-11-11T20:15:03.075Z,5.2
2018-11-11T20:30:03.454Z,4.9
2018-11-11T20:45:02.698Z,4.8
2018-11-11T21:00:03.048Z,4.6
2018-11-11T21:15:03.363Z,4.4
2018-11-11T21:30:02.937Z,4.3
2018-11-11T21:45:03.210Z,3.9
2018-11-11T22:00:02.544Z,3.9
2018-11-11T22:15:02.821Z,4
2018-11-11T22:30:03.112Z,3.9
2018-11-11T22:45:02.489Z,4.1
2018-11-11T23:00:02.826Z,4
2018-11-11T23:15:03.138Z,4
2018-11-11T23:30:02.497Z,4
2018-11-11T23:45:02.816Z,4.1
